createdAt,value
2022-12-20T00:11:07.646Z,4.97
2022-12-20T00:21:12.670Z,4.90
2022-12-20T00:31:18.772Z,7.03
2022-12-20T00:41:23.415Z,7.53
2022-12-20T00:51:29.244Z,6.05
2022-12-20T01:01:34.819Z,7.43
2022-12-20T01:11:39.735Z,6.60
2022-12-20T01:21:44.983Z,4.78
2022-12-20T01:31:49.946Z,3.92
2022-12-20T01:41:52.979Z,5.35
2022-12-20T01:51:59.771Z,4.07
2022-12-20T02:02:06.069Z,6.43
2022-12-20T02:12:15.791Z,7.57
2022-12-20T02:22:29.912Z,16.00
2022-12-20T02:32:38.324Z,3.47
2022-12-20T02:42:41.180Z,3.90
2022-12-20T02:52:45.696Z,4.32
2022-12-20T03:03:06.630Z,4.70
2022-12-20T03:13:10.907Z,3.33
2022-12-20T03:23:13.819Z,9.85
2022-12-20T03:33:17.928Z,3.33
2022-12-20T03:43:20.672Z,7.88
2022-12-20T03:53:24.890Z,4.05
2022-12-20T04:03:27.771Z,4.93
2022-12-20T04:13:31.833Z,7.30
2022-12-20T04:23:35.380Z,5.00
2022-12-20T04:33:39.832Z,3.28
2022-12-20T04:43:42.554Z,5.45
2022-12-20T04:53:50.192Z,4.65
2022-12-20T05:03:53.429Z,5.28
2022-12-20T05:13:57.535Z,6.00
2022-12-20T05:24:17.824Z,6.50
2022-12-20T05:34:22.061Z,5.72
2022-12-20T05:44:24.830Z,9.38
2022-12-20T05:54:30.079Z,7.20
2022-12-20T06:04:32.897Z,5.63
2022-12-20T06:14:37.014Z,8.52
2022-12-20T06:24:47.631Z,5.68
2022-12-20T06:34:53.268Z,4.03
2022-12-20T06:44:56.024Z,5.18
2022-12-20T06:55:00.107Z,5.38
2022-12-20T07:05:02.907Z,4.32
2022-12-20T07:15:08.378Z,7.43
2022-12-20T07:25:11.589Z,7.38
2022-12-20T07:35:16.772Z,11.02
2022-12-20T07:45:19.774Z,6.53
2022-12-20T07:55:24.148Z,5.50
2022-12-20T08:05:28.313Z,5.85
2022-12-20T08:15:32.525Z,6.63
2022-12-20T08:25:41.255Z,6.90
2022-12-20T08:35:46.307Z,7.80
2022-12-20T08:45:53.627Z,7.80
2022-12-20T08:56:04.971Z,12.15
2022-12-20T09:06:09.848Z,6.80
2022-12-20T09:16:15.459Z,10.70
2022-12-20T09:26:18.819Z,8.77
2022-12-20T09:36:25.063Z,7.57
2022-12-20T09:46:28.743Z,5.22
2022-12-20T09:56:37.119Z,7.90
2022-12-20T10:06:50.645Z,3.75
2022-12-20T10:16:59.590Z,4.28
2022-12-20T10:27:12.474Z,5.05
2022-12-20T10:37:16.986Z,4.25
2022-12-20T10:47:26.958Z,3.67
2022-12-20T10:57:31.779Z,7.47
2022-12-20T11:07:36.057Z,9.20
2022-12-20T11:17:46.478Z,7.80
2022-12-20T11:28:00.612Z,9.27
2022-12-20T11:38:12.994Z,5.25
2022-12-20T11:48:40.984Z,6.45
2022-12-20T11:58:54.429Z,4.53
2022-12-20T12:09:09.617Z,10.40
2022-12-20T12:19:15.663Z,11.52
2022-12-20T12:29:20.769Z,8.65
2022-12-20T12:39:51.624Z,4.22
2022-12-20T12:59:59.675Z,8.18
2022-12-20T13:10:29.453Z,4.85
2022-12-20T13:20:35.836Z,8.20
2022-12-20T13:30:39.600Z,7.38
2022-12-20T13:40:46.030Z,5.82
2022-12-20T13:50:50.928Z,7.55
2022-12-20T14:01:04.669Z,6.30
2022-12-20T14:11:12.274Z,10.13
2022-12-20T14:21:17.036Z,9.15
2022-12-20T14:31:28.695Z,6.35
2022-12-20T14:41:36.581Z,6.47
2022-12-20T14:51:40.558Z,8.02
2022-12-20T15:01:45.035Z,5.95
2022-12-20T15:11:49.093Z,8.48
2022-12-20T15:21:53.239Z,9.25
2022-12-20T15:32:06.156Z,10.88
2022-12-20T15:42:16.478Z,7.32
2022-12-20T16:02:27.195Z,8.25
2022-12-20T16:12:34.084Z,9.02
2022-12-20T16:22:38.298Z,9.50
2022-12-20T16:32:41.152Z,8.60
2022-12-20T16:42:45.306Z,13.25
2022-12-20T16:52:50.224Z,10.60
2022-12-20T17:02:54.636Z,8.57
2022-12-20T17:12:58.026Z,14.70
2022-12-20T17:33:22.185Z,10.65
2022-12-20T17:43:26.354Z,12.35
2022-12-20T17:53:29.107Z,15.38
2022-12-20T18:04:05.001Z,15.30
2022-12-20T18:13:58.354Z,16.38
2022-12-20T18:24:02.804Z,14.75
2022-12-20T18:34:06.364Z,14.57
2022-12-20T18:44:11.569Z,14.68
2022-12-20T18:54:14.863Z,17.15
2022-12-20T19:04:24.230Z,17.15
2022-12-20T19:14:27.865Z,21.88
2022-12-20T19:24:31.954Z,13.88
2022-12-20T19:34:34.727Z,12.90
2022-12-20T19:44:38.820Z,13.88
2022-12-20T19:54:43.056Z,13.65
2022-12-20T20:04:47.188Z,15.43
2022-12-20T20:14:52.308Z,13.48
2022-12-20T20:24:56.484Z,14.65
2022-12-20T20:34:59.433Z,18.05
2022-12-20T20:45:04.033Z,17.85
2022-12-20T20:55:07.853Z,23.30
2022-12-20T21:15:35.974Z,18.67
2022-12-20T21:25:40.306Z,15.38
2022-12-20T21:35:47.082Z,17.50
2022-12-20T21:45:54.073Z,17.97
2022-12-20T21:55:57.487Z,14.13
2022-12-20T22:06:01.976Z,20.20
2022-12-20T22:16:06.741Z,20.70
2022-12-20T22:26:13.551Z,18.15
2022-12-20T22:36:17.429Z,22.05
2022-12-20T22:46:21.830Z,18.25
2022-12-20T22:56:24.868Z,20.13
2022-12-20T23:06:28.976Z,21.92
2022-12-20T23:16:32.106Z,22.10
2022-12-20T23:26:38.444Z,22.63
2022-12-20T23:36:41.369Z,40.88
2022-12-20T23:46:45.700Z,27.92
2022-12-20T23:56:48.506Z,29.35
